createdAt,value
2022-10-29T00:03:13.225Z,24
2022-10-29T00:08:31.341Z,24
2022-10-29T00:13:49.861Z,24
2022-10-29T00:19:08.050Z,24
2022-10-29T00:24:26.825Z,24
2022-10-29T00:29:45.074Z,24
2022-10-29T00:35:03.265Z,24
2022-10-29T00:40:21.744Z,24
2022-10-29T00:45:40.240Z,24
2022-10-29T00:50:58.144Z,24
2022-10-29T00:56:16.369Z,24
2022-10-29T01:01:34.995Z,24
2022-10-29T01:06:53.919Z,24
2022-10-29T01:12:12.684Z,24
2022-10-29T01:17:31.214Z,24
2022-10-29T01:22:49.792Z,24
2022-10-29T01:28:08.554Z,24
2022-10-29T01:33:26.826Z,24
2022-10-29T01:38:45.557Z,24
2022-10-29T01:44:04.045Z,24
2022-10-29T01:49:22.557Z,24
2022-10-29T01:54:41.033Z,24
2022-10-29T01:59:59.797Z,24
2022-10-29T02:05:18.588Z,24
2022-10-29T02:10:36.776Z,24
2022-10-29T02:15:55.268Z,24
2022-10-29T02:21:14.060Z,24
2022-10-29T02:26:32.524Z,23.9
2022-10-29T02:31:51.288Z,23.9
2022-10-29T02:37:10.076Z,23.9
2022-10-29T02:42:28.541Z,23.9
2022-10-29T02:47:47.028Z,23.9
2022-10-29T02:53:05.267Z,24
2022-10-29T02:58:23.725Z,24
2022-10-29T03:03:42.208Z,24
2022-10-29T03:09:00.725Z,24
2022-10-29T03:14:18.642Z,24
2022-10-29T03:19:37.401Z,24
2022-10-29T03:24:56.197Z,24
2022-10-29T03:30:14.949Z,24
2022-10-29T03:35:33.220Z,23.9
2022-10-29T03:40:51.781Z,23.9
2022-10-29T03:46:10.244Z,23.9
2022-10-29T03:51:28.163Z,23.9
2022-10-29T03:56:46.413Z,23.9
2022-10-29T04:02:05.431Z,23.9
2022-10-29T04:07:23.898Z,23.9
2022-10-29T04:12:42.125Z,23.9
2022-10-29T04:18:00.585Z,23.9
2022-10-29T04:30:07.311Z,23.9
2022-10-29T04:35:25.955Z,23.9
2022-10-29T04:40:44.726Z,23.8
2022-10-29T04:46:03.261Z,23.8
2022-10-29T04:51:21.999Z,23.8
2022-10-29T04:56:40.202Z,23.8
2022-10-29T05:01:58.723Z,23.9
2022-10-29T05:07:16.614Z,23.8
2022-10-29T05:12:35.399Z,23.9
2022-10-29T05:17:38.303Z,23.9
2022-10-29T05:22:56.486Z,23.9
2022-10-29T05:28:14.973Z,23.9
2022-10-29T05:33:33.768Z,23.9
2022-10-29T05:38:52.517Z,24
2022-10-29T05:44:10.436Z,24
2022-10-29T05:49:13.326Z,24.1
2022-10-29T05:54:31.795Z,24.1
2022-10-29T05:59:50.272Z,24.2
2022-10-29T06:05:08.528Z,24.7
2022-10-29T06:10:27.416Z,24.6
2022-10-29T06:15:45.818Z,24.5
2022-10-29T06:21:04.618Z,24.5
2022-10-29T06:26:23.075Z,24.5
2022-10-29T06:31:41.301Z,24.5
2022-10-29T06:37:00.137Z,24.5
2022-10-29T06:42:18.317Z,24.5
2022-10-29T06:47:37.115Z,24.5
2022-10-29T06:52:56.227Z,24.5
2022-10-29T06:58:15.262Z,24.5
2022-10-29T07:03:34.015Z,24.5
2022-10-29T07:08:52.527Z,24.6
2022-10-29T07:14:11.241Z,24.6
2022-10-29T07:19:29.731Z,24.6
2022-10-29T07:24:48.510Z,24.6
2022-10-29T07:30:06.979Z,24.6
2022-10-29T07:35:25.743Z,24.7
2022-10-29T07:40:43.700Z,24.7
2022-10-29T07:46:02.150Z,24.7
2022-10-29T07:51:20.900Z,24.7
2022-10-29T07:56:45.083Z,24.6
2022-10-29T08:02:06.455Z,24.6
2022-10-29T08:07:25.345Z,24.7
2022-10-29T08:12:43.831Z,24.7
2022-10-29T08:18:02.286Z,24.7
2022-10-29T08:23:20.775Z,24.8
2022-10-29T08:28:38.987Z,24.9
2022-10-29T08:33:57.169Z,24.9
2022-10-29T08:39:15.638Z,24.9
2022-10-29T08:44:34.425Z,25
2022-10-29T08:49:52.318Z,25
2022-10-29T08:55:10.768Z,25
2022-10-29T09:00:29.268Z,25.1
2022-10-29T09:05:47.170Z,25.1
2022-10-29T09:11:05.372Z,25.1
2022-10-29T09:16:23.682Z,25.1
2022-10-29T09:21:42.152Z,25.2
2022-10-29T09:27:00.633Z,25.2
2022-10-29T09:32:20.593Z,25.2
2022-10-29T09:37:39.052Z,25.2
2022-10-29T09:42:57.533Z,25.2
2022-10-29T09:48:16.401Z,25.2
2022-10-29T09:53:35.135Z,25.2
2022-10-29T09:58:53.617Z,25.2
2022-10-29T10:04:11.870Z,25.2
2022-10-29T10:09:30.052Z,25.2
2022-10-29T10:14:48.804Z,25.2
2022-10-29T10:20:07.034Z,25.2
2022-10-29T10:25:25.678Z,25.2
2022-10-29T10:30:44.488Z,25.2
2022-10-29T10:36:03.296Z,25.2
2022-10-29T10:41:22.025Z,25.2
2022-10-29T10:46:40.236Z,25.2
2022-10-29T10:51:58.749Z,25.2
2022-10-29T10:57:17.010Z,25.2
2022-10-29T11:02:35.744Z,25.2
2022-10-29T11:07:55.503Z,25.2
2022-10-29T11:13:14.574Z,25.2
2022-10-29T11:18:32.786Z,25.2
2022-10-29T11:23:51.305Z,25.1
2022-10-29T11:28:53.876Z,25.1
2022-10-29T11:34:12.415Z,25.1
2022-10-29T11:39:30.648Z,25.1
2022-10-29T11:44:49.398Z,25.1
2022-10-29T11:50:07.872Z,25.1
2022-10-29T11:55:26.675Z,25.1
2022-10-29T12:00:45.163Z,25
2022-10-29T12:06:03.368Z,25
2022-10-29T12:11:21.597Z,25
2022-10-29T12:16:40.072Z,25
2022-10-29T12:21:58.548Z,25
2022-10-29T12:27:17.064Z,24.9
2022-10-29T12:32:35.523Z,24.9
2022-10-29T12:37:54.648Z,24.9
2022-10-29T12:43:13.287Z,24.8
2022-10-29T12:48:31.753Z,24.8
2022-10-29T12:53:50.509Z,24.8
2022-10-29T12:59:09.029Z,24.8
2022-10-29T13:04:26.941Z,24.8
2022-10-29T13:09:48.759Z,24.8
2022-10-29T13:15:06.987Z,24.7
2022-10-29T13:20:25.458Z,24.7
2022-10-29T13:25:44.205Z,24.7
2022-10-29T13:31:02.709Z,24.7
2022-10-29T13:36:20.888Z,24.7
2022-10-29T13:41:39.363Z,24.7
2022-10-29T13:46:58.023Z,24.6
2022-10-29T13:52:16.475Z,24.6
2022-10-29T13:57:35.247Z,24.6
2022-10-29T14:02:53.471Z,24.6
2022-10-29T14:08:12.215Z,24.6
2022-10-29T14:13:30.692Z,24.6
2022-10-29T14:18:49.479Z,24.6
2022-10-29T14:24:07.658Z,24.6
2022-10-29T14:29:26.429Z,24.6
2022-10-29T14:34:44.922Z,24.6
2022-10-29T14:40:03.716Z,24.5
2022-10-29T14:45:22.192Z,24.5
2022-10-29T14:50:40.976Z,24.5
2022-10-29T14:55:59.146Z,24.5
2022-10-29T15:01:17.705Z,24.5
2022-10-29T15:06:35.791Z,24.5
2022-10-29T15:11:53.977Z,24.5
2022-10-29T15:17:15.272Z,24.4
2022-10-29T15:22:34.057Z,24.4
2022-10-29T15:27:52.519Z,24.4
2022-10-29T15:33:11.296Z,24.4
2022-10-29T15:38:30.091Z,24.4
2022-10-29T15:43:48.553Z,24.4
2022-10-29T15:49:07.299Z,24.4
2022-10-29T15:54:25.819Z,24.3
2022-10-29T15:59:44.557Z,24.3
2022-10-29T16:05:03.040Z,24.3
2022-10-29T16:10:21.808Z,24.3
2022-10-29T16:15:44.491Z,24.3
2022-10-29T16:21:02.811Z,24.2
2022-10-29T16:26:21.641Z,24.2
2022-10-29T16:31:40.370Z,24.2
2022-10-29T16:36:59.136Z,24.2
2022-10-29T16:42:17.939Z,24.2
2022-10-29T16:47:36.394Z,24.1
2022-10-29T16:52:54.598Z,24.1
2022-10-29T16:58:13.382Z,24.1
2022-10-29T17:03:32.181Z,24.1
2022-10-29T17:08:50.930Z,24.1
2022-10-29T17:14:09.432Z,24.1
2022-10-29T17:19:28.196Z,24.1
2022-10-29T17:24:46.685Z,24.1
2022-10-29T17:30:05.466Z,24.1
2022-10-29T17:35:23.918Z,24.1
2022-10-29T17:40:42.672Z,24.2
2022-10-29T17:46:00.635Z,24.2
2022-10-29T17:51:19.332Z,24.2
2022-10-29T17:56:37.527Z,24.2
2022-10-29T18:01:56.565Z,24.2
2022-10-29T18:07:14.615Z,24
2022-10-29T18:12:33.089Z,24.1
2022-10-29T18:23:11.121Z,24.1
2022-10-29T18:28:29.596Z,24.1
2022-10-29T18:33:48.118Z,24.1
2022-10-29T18:39:06.362Z,24.1
2022-10-29T18:44:25.168Z,24.1
2022-10-29T18:49:43.681Z,24.1
2022-10-29T18:55:01.863Z,24.1
2022-10-29T19:00:20.899Z,24.1
2022-10-29T19:05:39.400Z,24.1
2022-10-29T19:10:57.877Z,24
2022-10-29T19:16:16.085Z,24.1
2022-10-29T19:21:34.597Z,24
2022-10-29T19:26:53.331Z,24.1
2022-10-29T19:32:11.818Z,24
2022-10-29T19:37:30.625Z,24
2022-10-29T19:42:48.795Z,24
2022-10-29T19:48:07.566Z,24
2022-10-29T19:53:26.370Z,24
2022-10-29T19:58:44.814Z,24
2022-10-29T20:03:47.682Z,24
2022-10-29T20:09:05.893Z,24
2022-10-29T20:14:29.354Z,24
2022-10-29T20:19:47.661Z,24
2022-10-29T20:25:06.168Z,24
2022-10-29T20:30:24.618Z,24
2022-10-29T20:35:43.544Z,24
2022-10-29T20:41:02.325Z,24
2022-10-29T20:46:21.066Z,24
2022-10-29T20:51:39.260Z,24
2022-10-29T20:56:58.051Z,24
2022-10-29T21:02:16.834Z,24.1
2022-10-29T21:07:35.047Z,24.1
2022-10-29T21:12:53.536Z,24.1
2022-10-29T21:18:11.991Z,24.1
2022-10-29T21:28:49.045Z,24
2022-10-29T21:34:07.219Z,24
2022-10-29T21:39:25.705Z,24
2022-10-29T21:44:44.511Z,24
2022-10-29T21:50:02.960Z,24
2022-10-29T21:55:21.168Z,24
2022-10-29T22:00:24.060Z,24
2022-10-29T22:05:42.245Z,24
2022-10-29T22:11:00.724Z,24
2022-10-29T22:16:19.206Z,24
2022-10-29T22:21:37.658Z,24
2022-10-29T22:26:55.863Z,24
2022-10-29T22:32:14.368Z,24
2022-10-29T22:37:32.842Z,24
2022-10-29T22:42:51.315Z,24
2022-10-29T22:48:10.110Z,24
2022-10-29T22:53:28.859Z,24
2022-10-29T22:58:47.630Z,24
2022-10-29T23:04:06.423Z,24
2022-10-29T23:09:24.338Z,24
2022-10-29T23:14:42.582Z,23.9
2022-10-29T23:20:01.376Z,23.9
2022-10-29T23:25:19.568Z,23.9
2022-10-29T23:30:38.048Z,23.9
2022-10-29T23:35:56.289Z,23.9
2022-10-29T23:41:14.191Z,23.9
2022-10-29T23:46:32.696Z,23.9
2022-10-29T23:51:51.207Z,23.9
2022-10-29T23:57:09.956Z,23.9
